sensor_id;sensor_type;location;lat;lon;timestamp;temperature;humidity
4056;DHT22;2043;52.184;8.690;2023-06-14T00:00:45;19.00;74.00
4056;DHT22;2043;52.184;8.690;2023-06-14T00:03:12;19.00;73.90
4056;DHT22;2043;52.184;8.690;2023-06-14T00:05:44;18.90;74.00
4056;DHT22;2043;52.184;8.690;2023-06-14T00:08:13;18.90;74.40
4056;DHT22;2043;52.184;8.690;2023-06-14T00:10:40;18.90;74.40
4056;DHT22;2043;52.184;8.690;2023-06-14T00:13:10;18.90;74.40
4056;DHT22;2043;52.184;8.690;2023-06-14T00:15:37;18.90;74.40
4056;DHT22;2043;52.184;8.690;2023-06-14T00:18:04;18.80;75.00
4056;DHT22;2043;52.184;8.690;2023-06-14T00:20:32;18.60;75.20
4056;DHT22;2043;52.184;8.690;2023-06-14T00:23:00;18.60;75.30
4056;DHT22;2043;52.184;8.690;2023-06-14T00:25:27;18.50;75.60
4056;DHT22;2043;52.184;8.690;2023-06-14T00:27:58;18.50;75.80
4056;DHT22;2043;52.184;8.690;2023-06-14T00:30:25;18.50;75.80
4056;DHT22;2043;52.184;8.690;2023-06-14T00:32:52;18.40;76.10
4056;DHT22;2043;52.184;8.690;2023-06-14T00:35:19;18.40;76.10
4056;DHT22;2043;52.184;8.690;2023-06-14T00:37:46;18.30;76.30
4056;DHT22;2043;52.184;8.690;2023-06-14T00:40:12;18.30;76.40
4056;DHT22;2043;52.184;8.690;2023-06-14T00:42:40;18.20;76.40
4056;DHT22;2043;52.184;8.690;2023-06-14T00:45:07;18.30;76.40
4056;DHT22;2043;52.184;8.690;2023-06-14T00:47:36;18.30;76.20
4056;DHT22;2043;52.184;8.690;2023-06-14T00:50:07;18.30;76.20
4056;DHT22;2043;52.184;8.690;2023-06-14T00:52:34;18.20;76.60
4056;DHT22;2043;52.184;8.690;2023-06-14T00:55:01;18.20;76.40
4056;DHT22;2043;52.184;8.690;2023-06-14T00:57:28;18.10;76.70
4056;DHT22;2043;52.184;8.690;2023-06-14T00:59:56;18.00;77.00
4056;DHT22;2043;52.184;8.690;2023-06-14T01:02:23;18.00;77.10
4056;DHT22;2043;52.184;8.690;2023-06-14T01:04:52;18.00;77.10
4056;DHT22;2043;52.184;8.690;2023-06-14T01:10:52;17.90;77.40
4056;DHT22;2043;52.184;8.690;2023-06-14T01:15:49;17.90;77.60
4056;DHT22;2043;52.184;8.690;2023-06-14T01:18:17;18.00;77.30
4056;DHT22;2043;52.184;8.690;2023-06-14T01:20:46;18.00;77.20
4056;DHT22;2043;52.184;8.690;2023-06-14T01:23:17;17.90;77.40
4056;DHT22;2043;52.184;8.690;2023-06-14T01:25:44;17.80;77.70
4056;DHT22;2043;52.184;8.690;2023-06-14T01:28:15;17.80;77.80
4056;DHT22;2043;52.184;8.690;2023-06-14T01:30:45;17.80;78.00
4056;DHT22;2043;52.184;8.690;2023-06-14T01:33:14;17.70;78.10
4056;DHT22;2043;52.184;8.690;2023-06-14T01:35:46;17.70;78.10
4056;DHT22;2043;52.184;8.690;2023-06-14T01:38:14;17.80;78.00
4056;DHT22;2043;52.184;8.690;2023-06-14T01:40:43;17.80;78.00
4056;DHT22;2043;52.184;8.690;2023-06-14T01:43:13;17.80;78.10
4056;DHT22;2043;52.184;8.690;2023-06-14T01:45:41;17.70;78.50
4056;DHT22;2043;52.184;8.690;2023-06-14T01:48:09;17.60;78.60
4056;DHT22;2043;52.184;8.690;2023-06-14T01:50:36;17.40;78.90
4056;DHT22;2043;52.184;8.690;2023-06-14T01:53:03;17.50;78.90
4056;DHT22;2043;52.184;8.690;2023-06-14T01:55:30;17.50;79.00
4056;DHT22;2043;52.184;8.690;2023-06-14T01:58:00;17.40;79.00
4056;DHT22;2043;52.184;8.690;2023-06-14T02:00:26;17.50;79.00
4056;DHT22;2043;52.184;8.690;2023-06-14T02:05:20;17.40;79.20
4056;DHT22;2043;52.184;8.690;2023-06-14T02:07:47;17.30;79.40
4056;DHT22;2043;52.184;8.690;2023-06-14T02:10:14;17.30;79.60
4056;DHT22;2043;52.184;8.690;2023-06-14T02:12:42;17.30;79.50
4056;DHT22;2043;52.184;8.690;2023-06-14T02:15:09;17.30;79.50
4056;DHT22;2043;52.184;8.690;2023-06-14T02:17:46;17.10;80.20
4056;DHT22;2043;52.184;8.690;2023-06-14T02:20:16;17.10;80.20
4056;DHT22;2043;52.184;8.690;2023-06-14T02:22:45;17.10;80.20
4056;DHT22;2043;52.184;8.690;2023-06-14T02:25:12;17.10;80.20
4056;DHT22;2043;52.184;8.690;2023-06-14T02:27:38;17.00;80.40
4056;DHT22;2043;52.184;8.690;2023-06-14T02:30:06;16.90;80.50
4056;DHT22;2043;52.184;8.690;2023-06-14T02:32:33;16.90;80.80
4056;DHT22;2043;52.184;8.690;2023-06-14T02:35:03;16.80;81.10
4056;DHT22;2043;52.184;8.690;2023-06-14T02:37:30;16.70;81.30
4056;DHT22;2043;52.184;8.690;2023-06-14T02:39:58;16.80;81.30
4056;DHT22;2043;52.184;8.690;2023-06-14T02:42:25;16.70;81.40
4056;DHT22;2043;52.184;8.690;2023-06-14T02:44:52;16.70;81.20
4056;DHT22;2043;52.184;8.690;2023-06-14T02:47:18;16.80;80.90
4056;DHT22;2043;52.184;8.690;2023-06-14T02:49:46;16.80;81.00
4056;DHT22;2043;52.184;8.690;2023-06-14T02:52:16;16.80;81.10
4056;DHT22;2043;52.184;8.690;2023-06-14T02:54:42;16.70;81.60
4056;DHT22;2043;52.184;8.690;2023-06-14T02:57:09;16.60;82.00
4056;DHT22;2043;52.184;8.690;2023-06-14T02:59:37;16.50;82.30
4056;DHT22;2043;52.184;8.690;2023-06-14T03:02:04;16.50;82.40
4056;DHT22;2043;52.184;8.690;2023-06-14T03:04:31;16.50;82.40
4056;DHT22;2043;52.184;8.690;2023-06-14T03:07:04;16.50;82.20
4056;DHT22;2043;52.184;8.690;2023-06-14T03:09:36;16.50;82.20
4056;DHT22;2043;52.184;8.690;2023-06-14T03:12:04;16.50;82.10
4056;DHT22;2043;52.184;8.690;2023-06-14T03:14:33;16.50;82.00
4056;DHT22;2043;52.184;8.690;2023-06-14T03:16:59;16.50;82.10
4056;DHT22;2043;52.184;8.690;2023-06-14T03:19:27;16.50;82.20
4056;DHT22;2043;52.184;8.690;2023-06-14T03:21:53;16.40;82.50
4056;DHT22;2043;52.184;8.690;2023-06-14T03:24:26;16.30;82.80
4056;DHT22;2043;52.184;8.690;2023-06-14T03:26:58;16.30;82.90
4056;DHT22;2043;52.184;8.690;2023-06-14T03:29:25;16.30;83.20
4056;DHT22;2043;52.184;8.690;2023-06-14T03:32:02;16.20;83.50
4056;DHT22;2043;52.184;8.690;2023-06-14T03:34:29;16.10;83.90
4056;DHT22;2043;52.184;8.690;2023-06-14T03:36:56;16.00;84.30
4056;DHT22;2043;52.184;8.690;2023-06-14T03:39:23;16.00;84.20
4056;DHT22;2043;52.184;8.690;2023-06-14T03:41:50;16.00;84.20
4056;DHT22;2043;52.184;8.690;2023-06-14T03:44:18;16.00;83.80
4056;DHT22;2043;52.184;8.690;2023-06-14T03:46:45;16.00;83.80
4056;DHT22;2043;52.184;8.690;2023-06-14T03:49:13;16.00;83.50
4056;DHT22;2043;52.184;8.690;2023-06-14T03:51:40;16.10;83.20
4056;DHT22;2043;52.184;8.690;2023-06-14T03:54:07;16.20;83.00
4056;DHT22;2043;52.184;8.690;2023-06-14T03:56:37;16.20;83.10
4056;DHT22;2043;52.184;8.690;2023-06-14T03:59:04;16.20;83.00
4056;DHT22;2043;52.184;8.690;2023-06-14T04:01:30;16.20;83.00
4056;DHT22;2043;52.184;8.690;2023-06-14T04:03:57;16.30;82.80
4056;DHT22;2043;52.184;8.690;2023-06-14T04:06:24;16.40;82.70
4056;DHT22;2043;52.184;8.690;2023-06-14T04:08:59;16.30;82.60
4056;DHT22;2043;52.184;8.690;2023-06-14T04:11:30;16.30;82.90
4056;DHT22;2043;52.184;8.690;2023-06-14T04:13:58;16.30;83.30
4056;DHT22;2043;52.184;8.690;2023-06-14T04:16:25;16.30;83.20
4056;DHT22;2043;52.184;8.690;2023-06-14T04:18:53;16.30;83.30
4056;DHT22;2043;52.184;8.690;2023-06-14T04:21:21;16.40;83.20
4056;DHT22;2043;52.184;8.690;2023-06-14T04:23:50;16.40;83.40
4056;DHT22;2043;52.184;8.690;2023-06-14T04:26:19;16.50;83.40
4056;DHT22;2043;52.184;8.690;2023-06-14T04:28:47;16.50;83.20
4056;DHT22;2043;52.184;8.690;2023-06-14T04:31:16;16.50;83.10
4056;DHT22;2043;52.184;8.690;2023-06-14T04:33:43;16.50;83.10
4056;DHT22;2043;52.184;8.690;2023-06-14T04:36:11;16.50;83.30
4056;DHT22;2043;52.184;8.690;2023-06-14T04:38:44;16.50;83.30
4056;DHT22;2043;52.184;8.690;2023-06-14T04:41:15;16.50;83.50
4056;DHT22;2043;52.184;8.690;2023-06-14T04:43:42;16.50;83.40
4056;DHT22;2043;52.184;8.690;2023-06-14T04:46:09;16.50;83.30
4056;DHT22;2043;52.184;8.690;2023-06-14T04:48:41;16.60;83.00
4056;DHT22;2043;52.184;8.690;2023-06-14T04:51:09;16.60;83.00
4056;DHT22;2043;52.184;8.690;2023-06-14T04:53:36;16.70;83.00
4056;DHT22;2043;52.184;8.690;2023-06-14T04:56:04;16.70;82.80
4056;DHT22;2043;52.184;8.690;2023-06-14T04:58:31;16.80;82.40
4056;DHT22;2043;52.184;8.690;2023-06-14T05:00:58;16.80;82.10
4056;DHT22;2043;52.184;8.690;2023-06-14T05:03:26;16.90;81.90
4056;DHT22;2043;52.184;8.690;2023-06-14T05:05:54;17.00;81.60
4056;DHT22;2043;52.184;8.690;2023-06-14T05:08:21;16.90;81.70
4056;DHT22;2043;52.184;8.690;2023-06-14T05:10:51;16.90;81.80
4056;DHT22;2043;52.184;8.690;2023-06-14T05:13:18;17.00;81.70
4056;DHT22;2043;52.184;8.690;2023-06-14T05:15:45;17.00;81.70
4056;DHT22;2043;52.184;8.690;2023-06-14T05:18:12;17.10;81.70
4056;DHT22;2043;52.184;8.690;2023-06-14T05:20:40;17.10;81.70
4056;DHT22;2043;52.184;8.690;2023-06-14T05:23:09;17.10;81.50
4056;DHT22;2043;52.184;8.690;2023-06-14T05:25:43;17.30;81.30
4056;DHT22;2043;52.184;8.690;2023-06-14T05:28:10;17.30;81.00
4056;DHT22;2043;52.184;8.690;2023-06-14T05:30:38;17.40;81.20
4056;DHT22;2043;52.184;8.690;2023-06-14T05:33:06;17.50;81.20
4056;DHT22;2043;52.184;8.690;2023-06-14T05:35:33;17.50;81.20
4056;DHT22;2043;52.184;8.690;2023-06-14T05:38:01;17.70;80.90
4056;DHT22;2043;52.184;8.690;2023-06-14T05:40:27;17.70;80.50
4056;DHT22;2043;52.184;8.690;2023-06-14T05:42:55;17.70;80.40
4056;DHT22;2043;52.184;8.690;2023-06-14T05:45:22;17.60;80.60
4056;DHT22;2043;52.184;8.690;2023-06-14T05:47:48;17.60;80.70
4056;DHT22;2043;52.184;8.690;2023-06-14T05:50:15;17.70;80.60
4056;DHT22;2043;52.184;8.690;2023-06-14T05:52:42;17.70;80.40
4056;DHT22;2043;52.184;8.690;2023-06-14T05:55:09;17.80;80.20
4056;DHT22;2043;52.184;8.690;2023-06-14T05:57:39;17.80;80.20
4056;DHT22;2043;52.184;8.690;2023-06-14T06:00:07;17.80;80.10
4056;DHT22;2043;52.184;8.690;2023-06-14T06:02:37;17.80;80.00
4056;DHT22;2043;52.184;8.690;2023-06-14T06:05:05;18.00;80.00
4056;DHT22;2043;52.184;8.690;2023-06-14T06:07:32;18.20;79.80
4056;DHT22;2043;52.184;8.690;2023-06-14T06:10:03;18.20;79.90
4056;DHT22;2043;52.184;8.690;2023-06-14T06:12:30;18.30;79.90
4056;DHT22;2043;52.184;8.690;2023-06-14T06:14:57;18.30;80.10
4056;DHT22;2043;52.184;8.690;2023-06-14T06:17:25;18.30;80.10
4056;DHT22;2043;52.184;8.690;2023-06-14T06:19:52;18.40;80.00
4056;DHT22;2043;52.184;8.690;2023-06-14T06:22:19;18.50;79.90
4056;DHT22;2043;52.184;8.690;2023-06-14T06:24:45;18.50;79.90
4056;DHT22;2043;52.184;8.690;2023-06-14T06:27:12;18.80;79.60
4056;DHT22;2043;52.184;8.690;2023-06-14T06:29:39;18.80;79.60
4056;DHT22;2043;52.184;8.690;2023-06-14T06:32:06;18.90;78.70
4056;DHT22;2043;52.184;8.690;2023-06-14T06:34:33;19.30;77.80
4056;DHT22;2043;52.184;8.690;2023-06-14T06:37:00;19.30;77.50
4056;DHT22;2043;52.184;8.690;2023-06-14T06:39:27;19.20;76.30
4056;DHT22;2043;52.184;8.690;2023-06-14T06:41:54;18.80;76.90
4056;DHT22;2043;52.184;8.690;2023-06-14T06:44:21;18.80;77.40
4056;DHT22;2043;52.184;8.690;2023-06-14T06:46:47;18.80;76.90
4056;DHT22;2043;52.184;8.690;2023-06-14T06:49:14;18.80;77.00
4056;DHT22;2043;52.184;8.690;2023-06-14T06:51:42;18.80;77.60
4056;DHT22;2043;52.184;8.690;2023-06-14T06:54:10;19.00;77.10
4056;DHT22;2043;52.184;8.690;2023-06-14T06:56:37;19.20;76.40
4056;DHT22;2043;52.184;8.690;2023-06-14T06:59:03;19.30;76.50
4056;DHT22;2043;52.184;8.690;2023-06-14T07:01:30;19.30;75.80
4056;DHT22;2043;52.184;8.690;2023-06-14T07:04:00;19.30;76.10
4056;DHT22;2043;52.184;8.690;2023-06-14T07:06:27;19.40;76.00
4056;DHT22;2043;52.184;8.690;2023-06-14T07:08:54;19.30;76.20
4056;DHT22;2043;52.184;8.690;2023-06-14T07:11:21;19.40;75.60
4056;DHT22;2043;52.184;8.690;2023-06-14T07:13:47;19.50;75.60
4056;DHT22;2043;52.184;8.690;2023-06-14T07:16:14;19.50;75.60
4056;DHT22;2043;52.184;8.690;2023-06-14T07:18:41;19.70;75.30
4056;DHT22;2043;52.184;8.690;2023-06-14T07:21:08;19.60;74.70
4056;DHT22;2043;52.184;8.690;2023-06-14T07:23:35;19.50;74.70
4056;DHT22;2043;52.184;8.690;2023-06-14T07:26:02;19.50;75.20
4056;DHT22;2043;52.184;8.690;2023-06-14T07:28:29;19.30;75.70
4056;DHT22;2043;52.184;8.690;2023-06-14T07:30:56;19.60;75.60
4056;DHT22;2043;52.184;8.690;2023-06-14T07:33:23;19.70;74.90
4056;DHT22;2043;52.184;8.690;2023-06-14T07:35:49;19.70;74.70
4056;DHT22;2043;52.184;8.690;2023-06-14T07:38:17;19.60;74.90
4056;DHT22;2043;52.184;8.690;2023-06-14T07:40:43;19.90;74.90
4056;DHT22;2043;52.184;8.690;2023-06-14T07:43:10;20.30;73.60
4056;DHT22;2043;52.184;8.690;2023-06-14T07:45:37;20.30;73.20
4056;DHT22;2043;52.184;8.690;2023-06-14T07:48:04;20.00;72.90
4056;DHT22;2043;52.184;8.690;2023-06-14T07:50:31;20.00;72.90
4056;DHT22;2043;52.184;8.690;2023-06-14T07:52:58;20.20;73.10
4056;DHT22;2043;52.184;8.690;2023-06-14T07:55:24;20.50;72.90
4056;DHT22;2043;52.184;8.690;2023-06-14T07:57:51;20.60;72.70
4056;DHT22;2043;52.184;8.690;2023-06-14T08:00:19;20.60;72.00
4056;DHT22;2043;52.184;8.690;2023-06-14T08:02:46;20.60;72.00
4056;DHT22;2043;52.184;8.690;2023-06-14T08:05:13;20.00;72.90
4056;DHT22;2043;52.184;8.690;2023-06-14T08:07:41;19.90;73.10
4056;DHT22;2043;52.184;8.690;2023-06-14T08:10:08;19.80;73.50
4056;DHT22;2043;52.184;8.690;2023-06-14T08:12:35;20.10;73.20
4056;DHT22;2043;52.184;8.690;2023-06-14T08:15:03;20.40;73.20
4056;DHT22;2043;52.184;8.690;2023-06-14T08:17:40;20.70;73.20
4056;DHT22;2043;52.184;8.690;2023-06-14T08:20:07;21.00;72.70
4056;DHT22;2043;52.184;8.690;2023-06-14T08:22:34;21.10;71.80
4056;DHT22;2043;52.184;8.690;2023-06-14T08:25:02;21.10;71.80
4056;DHT22;2043;52.184;8.690;2023-06-14T08:27:30;20.90;72.00
4056;DHT22;2043;52.184;8.690;2023-06-14T08:29:57;20.90;72.10
4056;DHT22;2043;52.184;8.690;2023-06-14T08:32:24;21.10;72.10
4056;DHT22;2043;52.184;8.690;2023-06-14T08:34:51;21.50;71.10
4056;DHT22;2043;52.184;8.690;2023-06-14T08:37:30;21.50;71.00
4056;DHT22;2043;52.184;8.690;2023-06-14T08:39:57;21.50;71.20
4056;DHT22;2043;52.184;8.690;2023-06-14T08:42:24;21.70;70.90
4056;DHT22;2043;52.184;8.690;2023-06-14T08:44:58;21.80;70.70
4056;DHT22;2043;52.184;8.690;2023-06-14T08:47:26;21.70;69.50
4056;DHT22;2043;52.184;8.690;2023-06-14T08:49:57;21.50;69.60
4056;DHT22;2043;52.184;8.690;2023-06-14T08:52:25;21.50;69.70
4056;DHT22;2043;52.184;8.690;2023-06-14T08:54:56;21.70;69.80
4056;DHT22;2043;52.184;8.690;2023-06-14T08:57:24;21.80;69.40
4056;DHT22;2043;52.184;8.690;2023-06-14T08:59:52;21.80;69.70
4056;DHT22;2043;52.184;8.690;2023-06-14T09:02:20;21.70;69.40
4056;DHT22;2043;52.184;8.690;2023-06-14T09:04:49;21.20;70.10
4056;DHT22;2043;52.184;8.690;2023-06-14T09:07:18;21.50;70.30
4056;DHT22;2043;52.184;8.690;2023-06-14T09:09:45;21.50;70.40
4056;DHT22;2043;52.184;8.690;2023-06-14T09:12:32;22.00;69.10
4056;DHT22;2043;52.184;8.690;2023-06-14T09:14:59;22.00;69.10
4056;DHT22;2043;52.184;8.690;2023-06-14T09:17:26;21.90;68.70
4056;DHT22;2043;52.184;8.690;2023-06-14T09:19:55;21.90;69.40
4056;DHT22;2043;52.184;8.690;2023-06-14T09:22:22;22.10;69.30
4056;DHT22;2043;52.184;8.690;2023-06-14T09:24:49;22.10;69.20
4056;DHT22;2043;52.184;8.690;2023-06-14T09:27:16;22.10;68.80
4056;DHT22;2043;52.184;8.690;2023-06-14T09:29:42;22.20;68.70
4056;DHT22;2043;52.184;8.690;2023-06-14T09:32:09;22.50;68.40
4056;DHT22;2043;52.184;8.690;2023-06-14T09:34:37;22.90;67.10
4056;DHT22;2043;52.184;8.690;2023-06-14T09:37:04;22.90;66.90
4056;DHT22;2043;52.184;8.690;2023-06-14T09:39:31;22.80;67.70
4056;DHT22;2043;52.184;8.690;2023-06-14T09:41:57;22.80;67.70
4056;DHT22;2043;52.184;8.690;2023-06-14T09:44:25;22.70;67.80
4056;DHT22;2043;52.184;8.690;2023-06-14T09:46:56;22.90;67.70
4056;DHT22;2043;52.184;8.690;2023-06-14T09:49:23;22.40;68.10
4056;DHT22;2043;52.184;8.690;2023-06-14T09:51:53;22.40;68.30
4056;DHT22;2043;52.184;8.690;2023-06-14T09:54:22;22.60;68.10
4056;DHT22;2043;52.184;8.690;2023-06-14T09:56:51;22.60;68.10
4056;DHT22;2043;52.184;8.690;2023-06-14T09:59:22;22.70;68.50
4056;DHT22;2043;52.184;8.690;2023-06-14T10:01:57;23.10;67.70
4056;DHT22;2043;52.184;8.690;2023-06-14T10:04:28;23.10;67.50
4056;DHT22;2043;52.184;8.690;2023-06-14T10:06:55;23.20;67.80
4056;DHT22;2043;52.184;8.690;2023-06-14T10:09:22;23.40;67.40
4056;DHT22;2043;52.184;8.690;2023-06-14T10:11:50;23.70;67.60
4056;DHT22;2043;52.184;8.690;2023-06-14T10:14:17;23.60;67.50
4056;DHT22;2043;52.184;8.690;2023-06-14T10:19:24;23.10;67.70
4056;DHT22;2043;52.184;8.690;2023-06-14T10:24:44;23.20;67.50
4056;DHT22;2043;52.184;8.690;2023-06-14T10:27:15;23.20;67.30
4056;DHT22;2043;52.184;8.690;2023-06-14T10:32:21;23.30;66.60
4056;DHT22;2043;52.184;8.690;2023-06-14T10:34:58;23.70;66.30
4056;DHT22;2043;52.184;8.690;2023-06-14T10:37:25;23.30;67.50
4056;DHT22;2043;52.184;8.690;2023-06-14T10:39:52;23.60;67.10
4056;DHT22;2043;52.184;8.690;2023-06-14T10:42:36;23.60;66.90
4056;DHT22;2043;52.184;8.690;2023-06-14T10:45:03;23.50;66.90
4056;DHT22;2043;52.184;8.690;2023-06-14T10:47:34;23.40;67.10
4056;DHT22;2043;52.184;8.690;2023-06-14T10:52:31;23.30;67.20
4056;DHT22;2043;52.184;8.690;2023-06-14T10:58:17;24.00;65.70
4056;DHT22;2043;52.184;8.690;2023-06-14T11:00:37;24.00;65.30
4056;DHT22;2043;52.184;8.690;2023-06-14T11:03:50;23.90;66.10
4056;DHT22;2043;52.184;8.690;2023-06-14T11:06:22;23.90;66.10
4056;DHT22;2043;52.184;8.690;2023-06-14T11:12:10;24.50;65.20
4056;DHT22;2043;52.184;8.690;2023-06-14T11:14:39;24.00;65.50
4056;DHT22;2043;52.184;8.690;2023-06-14T11:17:06;23.80;66.40
4056;DHT22;2043;52.184;8.690;2023-06-14T11:19:33;23.90;66.20
4056;DHT22;2043;52.184;8.690;2023-06-14T11:22:00;23.80;65.30
4056;DHT22;2043;52.184;8.690;2023-06-14T11:24:26;24.00;65.40
4056;DHT22;2043;52.184;8.690;2023-06-14T11:26:55;24.00;64.60
4056;DHT22;2043;52.184;8.690;2023-06-14T11:29:23;24.20;64.50
4056;DHT22;2043;52.184;8.690;2023-06-14T11:31:50;24.40;65.00
4056;DHT22;2043;52.184;8.690;2023-06-14T11:34:17;24.40;64.70
4056;DHT22;2043;52.184;8.690;2023-06-14T11:36:45;24.40;64.20
4056;DHT22;2043;52.184;8.690;2023-06-14T11:39:13;24.50;64.40
4056;DHT22;2043;52.184;8.690;2023-06-14T11:41:43;24.90;64.20
4056;DHT22;2043;52.184;8.690;2023-06-14T11:44:10;25.10;63.20
4056;DHT22;2043;52.184;8.690;2023-06-14T11:46:38;25.30;63.00
4056;DHT22;2043;52.184;8.690;2023-06-14T11:49:07;25.00;63.50
4056;DHT22;2043;52.184;8.690;2023-06-14T11:51:34;24.70;63.60
4056;DHT22;2043;52.184;8.690;2023-06-14T11:54:02;24.90;63.00
4056;DHT22;2043;52.184;8.690;2023-06-14T11:56:31;25.10;63.40
4056;DHT22;2043;52.184;8.690;2023-06-14T11:58:59;25.10;63.10
4056;DHT22;2043;52.184;8.690;2023-06-14T12:01:26;25.10;63.50
4056;DHT22;2043;52.184;8.690;2023-06-14T12:03:54;25.30;63.90
4056;DHT22;2043;52.184;8.690;2023-06-14T12:06:29;25.70;63.40
4056;DHT22;2043;52.184;8.690;2023-06-14T12:08:59;25.70;63.40
4056;DHT22;2043;52.184;8.690;2023-06-14T12:11:35;25.60;63.40
4056;DHT22;2043;52.184;8.690;2023-06-14T12:14:05;25.40;63.00
4056;DHT22;2043;52.184;8.690;2023-06-14T12:16:34;24.80;64.10
4056;DHT22;2043;52.184;8.690;2023-06-14T12:19:13;24.70;65.00
4056;DHT22;2043;52.184;8.690;2023-06-14T12:21:41;24.90;64.20
4056;DHT22;2043;52.184;8.690;2023-06-14T12:24:09;24.90;64.60
4056;DHT22;2043;52.184;8.690;2023-06-14T12:26:40;25.10;65.00
4056;DHT22;2043;52.184;8.690;2023-06-14T12:29:07;25.50;64.00
4056;DHT22;2043;52.184;8.690;2023-06-14T12:31:34;25.70;63.60
4056;DHT22;2043;52.184;8.690;2023-06-14T12:34:01;25.90;63.70
4056;DHT22;2043;52.184;8.690;2023-06-14T12:36:28;25.80;63.60
4056;DHT22;2043;52.184;8.690;2023-06-14T12:38:55;25.40;63.30
4056;DHT22;2043;52.184;8.690;2023-06-14T12:41:22;25.00;64.60
4056;DHT22;2043;52.184;8.690;2023-06-14T12:43:49;25.20;63.90
4056;DHT22;2043;52.184;8.690;2023-06-14T12:46:15;25.20;64.30
4056;DHT22;2043;52.184;8.690;2023-06-14T12:48:42;25.20;64.10
4056;DHT22;2043;52.184;8.690;2023-06-14T12:51:09;25.40;63.90
4056;DHT22;2043;52.184;8.690;2023-06-14T12:53:36;25.10;64.40
4056;DHT22;2043;52.184;8.690;2023-06-14T12:56:03;25.10;65.10
4056;DHT22;2043;52.184;8.690;2023-06-14T12:58:30;25.20;64.40
4056;DHT22;2043;52.184;8.690;2023-06-14T13:00:56;25.10;64.80
4056;DHT22;2043;52.184;8.690;2023-06-14T13:03:23;25.20;64.60
4056;DHT22;2043;52.184;8.690;2023-06-14T13:05:50;25.20;65.00
4056;DHT22;2043;52.184;8.690;2023-06-14T13:08:17;25.40;64.60
4056;DHT22;2043;52.184;8.690;2023-06-14T13:10:43;25.30;63.90
4056;DHT22;2043;52.184;8.690;2023-06-14T13:13:10;25.10;64.50
4056;DHT22;2043;52.184;8.690;2023-06-14T13:15:38;25.10;64.80
4056;DHT22;2043;52.184;8.690;2023-06-14T13:18:06;25.30;64.60
4056;DHT22;2043;52.184;8.690;2023-06-14T13:20:33;25.60;63.90
4056;DHT22;2043;52.184;8.690;2023-06-14T13:23:00;25.60;63.30
4056;DHT22;2043;52.184;8.690;2023-06-14T13:25:28;25.60;63.80
4056;DHT22;2043;52.184;8.690;2023-06-14T13:27:55;25.40;63.90
4056;DHT22;2043;52.184;8.690;2023-06-14T13:30:22;25.20;64.20
4056;DHT22;2043;52.184;8.690;2023-06-14T13:32:49;25.20;64.30
4056;DHT22;2043;52.184;8.690;2023-06-14T13:35:18;25.30;64.40
4056;DHT22;2043;52.184;8.690;2023-06-14T13:37:45;25.60;64.20
4056;DHT22;2043;52.184;8.690;2023-06-14T13:40:12;25.40;64.00
4056;DHT22;2043;52.184;8.690;2023-06-14T13:42:39;25.10;64.70
4056;DHT22;2043;52.184;8.690;2023-06-14T13:45:07;25.20;65.50
4056;DHT22;2043;52.184;8.690;2023-06-14T13:47:34;25.40;64.90
4056;DHT22;2043;52.184;8.690;2023-06-14T13:50:02;25.30;65.00
4056;DHT22;2043;52.184;8.690;2023-06-14T13:52:29;25.80;64.10
4056;DHT22;2043;52.184;8.690;2023-06-14T13:54:56;25.80;63.50
4056;DHT22;2043;52.184;8.690;2023-06-14T13:57:23;25.70;63.30
4056;DHT22;2043;52.184;8.690;2023-06-14T13:59:50;25.40;64.40
4056;DHT22;2043;52.184;8.690;2023-06-14T14:02:17;25.60;64.90
4056;DHT22;2043;52.184;8.690;2023-06-14T14:04:43;25.40;64.50
4056;DHT22;2043;52.184;8.690;2023-06-14T14:07:10;25.50;64.50
4056;DHT22;2043;52.184;8.690;2023-06-14T14:09:37;26.10;63.90
4056;DHT22;2043;52.184;8.690;2023-06-14T14:12:04;26.10;63.30
4056;DHT22;2043;52.184;8.690;2023-06-14T14:14:32;26.00;63.30
4056;DHT22;2043;52.184;8.690;2023-06-14T14:16:59;25.60;64.30
4056;DHT22;2043;52.184;8.690;2023-06-14T14:19:25;25.30;64.80
4056;DHT22;2043;52.184;8.690;2023-06-14T14:21:52;25.60;64.40
4056;DHT22;2043;52.184;8.690;2023-06-14T14:24:20;25.60;64.50
4056;DHT22;2043;52.184;8.690;2023-06-14T14:26:47;25.60;64.80
4056;DHT22;2043;52.184;8.690;2023-06-14T14:29:16;25.70;64.60
4056;DHT22;2043;52.184;8.690;2023-06-14T14:31:44;25.80;64.90
4056;DHT22;2043;52.184;8.690;2023-06-14T14:34:12;25.50;65.10
4056;DHT22;2043;52.184;8.690;2023-06-14T14:36:38;25.60;65.00
4056;DHT22;2043;52.184;8.690;2023-06-14T14:39:09;25.50;64.30
4056;DHT22;2043;52.184;8.690;2023-06-14T14:41:36;25.50;64.60
4056;DHT22;2043;52.184;8.690;2023-06-14T14:44:07;25.50;64.70
4056;DHT22;2043;52.184;8.690;2023-06-14T14:46:34;25.20;64.90
4056;DHT22;2043;52.184;8.690;2023-06-14T14:49:01;25.30;64.50
4056;DHT22;2043;52.184;8.690;2023-06-14T14:51:29;25.50;64.70
4056;DHT22;2043;52.184;8.690;2023-06-14T14:53:56;25.50;64.30
4056;DHT22;2043;52.184;8.690;2023-06-14T14:56:23;25.50;64.20
4056;DHT22;2043;52.184;8.690;2023-06-14T14:58:50;25.60;64.30
4056;DHT22;2043;52.184;8.690;2023-06-14T15:01:17;25.60;64.00
4056;DHT22;2043;52.184;8.690;2023-06-14T15:03:44;25.70;64.10
4056;DHT22;2043;52.184;8.690;2023-06-14T15:06:25;25.80;64.40
4056;DHT22;2043;52.184;8.690;2023-06-14T15:08:52;25.80;64.40
4056;DHT22;2043;52.184;8.690;2023-06-14T15:11:19;25.60;64.60
4056;DHT22;2043;52.184;8.690;2023-06-14T15:13:47;25.90;64.00
4056;DHT22;2043;52.184;8.690;2023-06-14T15:16:14;26.20;63.40
4056;DHT22;2043;52.184;8.690;2023-06-14T15:18:41;26.20;63.10
4056;DHT22;2043;52.184;8.690;2023-06-14T15:21:07;26.20;63.40
4056;DHT22;2043;52.184;8.690;2023-06-14T15:23:34;26.30;63.40
4056;DHT22;2043;52.184;8.690;2023-06-14T15:26:01;26.40;63.20
4056;DHT22;2043;52.184;8.690;2023-06-14T15:28:28;26.00;64.00
4056;DHT22;2043;52.184;8.690;2023-06-14T15:30:55;25.90;64.20
4056;DHT22;2043;52.184;8.690;2023-06-14T15:33:23;25.80;64.30
4056;DHT22;2043;52.184;8.690;2023-06-14T15:35:50;25.50;64.50
4056;DHT22;2043;52.184;8.690;2023-06-14T15:38:16;25.20;65.40
4056;DHT22;2043;52.184;8.690;2023-06-14T15:40:43;25.20;65.60
4056;DHT22;2043;52.184;8.690;2023-06-14T15:43:10;25.10;65.60
4056;DHT22;2043;52.184;8.690;2023-06-14T15:45:37;25.20;65.80
4056;DHT22;2043;52.184;8.690;2023-06-14T15:48:04;25.40;65.70
4056;DHT22;2043;52.184;8.690;2023-06-14T15:50:31;25.40;65.60
4056;DHT22;2043;52.184;8.690;2023-06-14T15:52:58;25.30;65.10
4056;DHT22;2043;52.184;8.690;2023-06-14T15:55:25;25.50;65.00
4056;DHT22;2043;52.184;8.690;2023-06-14T15:57:52;25.40;64.80
4056;DHT22;2043;52.184;8.690;2023-06-14T16:00:18;25.40;65.00
4056;DHT22;2043;52.184;8.690;2023-06-14T16:02:46;25.40;65.30
4056;DHT22;2043;52.184;8.690;2023-06-14T16:05:13;25.30;65.40
4056;DHT22;2043;52.184;8.690;2023-06-14T16:07:40;25.30;65.90
4056;DHT22;2043;52.184;8.690;2023-06-14T16:10:07;25.30;65.40
4056;DHT22;2043;52.184;8.690;2023-06-14T16:12:34;25.10;66.00
4056;DHT22;2043;52.184;8.690;2023-06-14T16:15:00;25.10;66.40
4056;DHT22;2043;52.184;8.690;2023-06-14T16:17:27;25.30;66.00
4056;DHT22;2043;52.184;8.690;2023-06-14T16:19:54;25.50;65.10
4056;DHT22;2043;52.184;8.690;2023-06-14T16:22:21;25.70;65.30
4056;DHT22;2043;52.184;8.690;2023-06-14T16:24:48;25.60;65.40
4056;DHT22;2043;52.184;8.690;2023-06-14T16:27:15;25.70;65.40
4056;DHT22;2043;52.184;8.690;2023-06-14T16:29:45;25.80;65.00
4056;DHT22;2043;52.184;8.690;2023-06-14T16:32:12;25.50;65.40